Time;durP1;ratioP1;P1;durP2;ratioP2;P2;SDS_P1;SDS_P2;PMS_P1;PMS_P2;Temp;Humidity;BMP_temperature;BMP_pressure;BME280_temperature;BME280_humidity;BME280_pressure;Samples;Min_cycle;Max_cycle;Signal;HPM_P1;HPM_P2
2022/11/25 00:00:28;;;;;;;112.68;53.10;;;;;;;1.36;87.23;100176.14;2192896;80;21036;-82
2022/11/25 00:03:29;;;;;;;120.45;53.90;;;;;;;1.28;87.20;100171.44;2190402;79;21065;-83
2022/11/25 00:06:34;;;;;;;;;;;;;;;1.18;87.25;100167.77;2199273;80;21544;-83
2022/11/25 00:09:35;;;;;;;107.95;49.45;;;;;;;1.15;87.31;100166.68;2193892;80;20146;-83
2022/11/25 00:12:36;;;;;;;110.45;49.00;;;;;;;1.04;87.19;100162.66;2192813;80;21021;-83
2022/11/25 00:15:37;;;;;;;116.55;52.23;;;;;;;1.05;87.40;100162.56;2171788;82;21516;-83
2022/11/25 00:18:39;;;;;;;113.52;53.78;;;;;;;1.01;87.35;100168.09;2177605;81;20993;-83
2022/11/25 00:21:40;;;;;;;124.35;54.20;;;;;;;1.00;87.57;100168.57;2181553;80;21033;-83
2022/11/25 00:24:42;;;;;;;118.33;53.02;;;;;;;1.03;87.71;100177.50;2181211;81;20998;-83
2022/11/25 00:27:43;;;;;;;110.25;51.55;;;;;;;1.04;87.77;100185.73;2178632;81;21088;-83
2022/11/25 00:30:44;;;;;;;102.15;48.95;;;;;;;1.04;87.76;100177.89;2182933;81;21533;-83
2022/11/25 00:33:46;;;;;;;101.00;47.35;;;;;;;1.03;87.81;100181.42;2164004;80;20985;-83
2022/11/25 00:36:47;;;;;;;102.22;46.90;;;;;;;1.08;88.01;100180.64;2179578;81;21034;-85
2022/11/25 00:39:48;;;;;;;102.07;47.73;;;;;;;1.16;88.13;100182.75;2197313;80;21046;-83
2022/11/25 00:46:08;;;;;;;93.07;46.15;;;;;;;1.21;88.11;100184.58;2189926;80;21082;-83
2022/11/25 00:49:09;;;;;;;100.02;47.27;;;;;;;1.27;88.18;100188.08;2197681;80;21491;-83
2022/11/25 00:52:14;;;;;;;105.47;49.08;;;;;;;1.23;87.99;100180.06;2191639;80;21048;-82
2022/11/25 00:55:15;;;;;;;101.25;49.35;;;;;;;1.15;87.96;100176.30;2193365;80;21002;-83
2022/11/25 00:58:17;;;;;;;102.75;48.73;;;;;;;1.11;88.19;100175.69;2164678;82;21017;-83
2022/11/25 01:01:19;;;;;;;102.32;49.93;;;;;;;1.22;88.59;100181.02;2169712;80;21046;-83
2022/11/25 01:04:20;;;;;;;97.82;48.68;;;;;;;1.32;88.74;100189.91;2177923;81;21087;-83
2022/11/25 01:07:21;;;;;;;105.55;49.60;;;;;;;1.41;88.79;100192.35;2176397;81;21048;-83
2022/11/25 01:10:22;;;;;;;100.85;48.48;;;;;;;1.49;88.82;100194.41;2195929;80;21588;-83
2022/11/25 01:13:23;;;;;;;104.65;50.00;;;;;;;1.57;88.80;100199.47;2195179;80;21108;-83
2022/11/25 01:16:25;;;;;;;111.77;48.87;;;;;;;1.62;88.79;100209.63;2195316;80;21054;-83
2022/11/25 01:19:27;;;;;;;104.78;48.60;;;;;;;1.69;88.82;100212.19;2193790;80;21540;-83
2022/11/25 01:22:28;;;;;;;96.85;47.50;;;;;;;1.73;88.71;100208.88;2166923;82;21045;-83
2022/11/25 01:25:29;;;;;;;96.08;50.75;;;;;;;1.62;88.25;100214.03;2175391;81;21092;-83
2022/11/25 01:28:30;;;;;;;105.47;49.03;;;;;;;1.57;88.46;100210.41;2171861;81;21041;-83
2022/11/25 01:31:35;;;;;;;111.50;51.23;;;;;;;1.60;88.74;100210.67;2176385;81;21551;-83
2022/11/25 01:34:36;;;;;;;99.37;48.20;;;;;;;1.55;88.70;100206.61;2171642;81;21490;-83
2022/11/25 01:37:37;;;;;;;101.47;48.92;;;;;;;1.50;88.72;100209.18;2178221;81;21511;-83
2022/11/25 01:40:38;;;;;;;101.18;49.63;;;;;;;1.62;89.23;100210.93;2174423;81;21018;-83
2022/11/25 01:43:40;;;;;;;103.58;49.08;;;;;;;1.70;89.25;100206.00;2171271;81;21534;-87
2022/11/25 01:47:07;;;;;;;99.03;48.13;;;;;;;1.66;89.02;100201.95;2170691;81;21526;-84
2022/11/25 01:50:11;;;;;;;103.75;49.13;;;;;;;1.65;89.08;100205.48;2173899;81;21528;-83
2022/11/25 01:53:15;;;;;;;97.02;49.95;;;;;;;1.66;89.17;100201.95;2175991;81;20978;-85
2022/11/25 01:56:18;;;;;;;100.07;47.70;;;;;;;1.74;89.48;100202.69;2174426;81;21114;-83
2022/11/25 01:59:19;;;;;;;92.95;46.10;;;;;;;1.77;89.41;100201.16;2172245;81;21021;-83
2022/11/25 02:02:21;;;;;;;90.00;46.18;;;;;;;1.74;89.22;100204.00;2177798;81;21065;-83
2022/11/25 02:05:43;;;;;;;93.72;47.13;;;;;;;1.76;89.47;100208.66;2174701;81;21549;-83
2022/11/25 02:08:50;;;;;;;95.00;45.17;;;;;;;1.86;89.66;100207.52;2145555;81;21506;-85
2022/11/25 02:11:52;;;;;;;96.87;47.08;;;;;;;1.86;89.46;100215.38;2180678;81;21047;-83
2022/11/25 02:14:56;;;;;;;94.17;46.65;;;;;;;1.97;89.81;100214.14;2172493;81;21025;-83
2022/11/25 02:17:57;;;;;;;96.97;47.80;;;;;;;2.00;89.69;100202.17;2175954;81;21535;-84
2022/11/25 02:20:58;;;;;;;100.72;49.63;;;;;;;2.06;89.78;100210.89;2181408;81;21032;-83
2022/11/25 02:24:10;;;;;;;105.90;48.58;;;;;;;2.14;89.87;100203.32;2191452;80;21612;-83
2022/11/25 02:27:12;;;;;;;105.00;47.33;;;;;;;2.23;90.03;100210.50;2141179;81;21041;-85
2022/11/25 02:30:15;;;;;;;98.12;46.70;;;;;;;2.28;89.86;100214.11;2188854;80;21041;-84
2022/11/25 02:33:17;;;;;;;119.82;52.80;;;;;;;2.30;89.77;100210.05;2215288;80;21110;-84
2022/11/25 02:36:21;;;;;;;99.37;48.30;;;;;;;2.26;89.66;100210.76;2191757;79;22662;-83
2022/11/25 02:39:22;;;;;;;99.10;46.40;;;;;;;2.18;89.65;100205.23;2199313;80;22296;-84
2022/11/25 02:42:27;;;;;;;103.70;46.98;;;;;;;2.09;89.68;100204.13;2193746;80;21060;-84
2022/11/25 02:45:46;;;;;;;97.90;47.17;;;;;;;2.07;89.95;100190.30;2201033;80;21088;-83
2022/11/25 02:48:47;;;;;;;111.28;49.90;;;;;;;2.05;90.05;100203.96;2193946;80;21575;-83
2022/11/25 02:51:48;;;;;;;107.58;44.48;;;;;;;2.07;90.34;100202.55;2193370;80;21064;-83
2022/11/25 02:54:51;;;;;;;96.50;44.98;;;;;;;2.14;90.52;100206.39;2195042;80;21376;-83
2022/11/25 02:57:52;;;;;;;96.30;42.95;;;;;;;2.20;90.75;100207.28;2187023;80;21017;-83
2022/11/25 03:00:53;;;;;;;103.95;47.20;;;;;;;2.23;90.59;100210.98;2169879;81;21476;-83
2022/11/25 03:03:57;;;;;;;103.97;46.68;;;;;;;2.22;90.56;100216.70;2204028;80;21061;-83
2022/11/25 03:07:02;;;;;;;104.78;44.85;;;;;;;2.22;90.58;100213.22;2196076;80;20993;-86
2022/11/25 03:10:03;;;;;;;108.22;46.70;;;;;;;2.15;90.45;100216.77;2168538;81;21056;-83
2022/11/25 03:13:08;;;;;;;95.35;45.10;;;;;;;2.19;90.84;100218.20;2196276;80;21496;-83
2022/11/25 03:16:11;;;;;;;99.77;43.23;;;;;;;2.25;90.99;100214.30;2171102;81;21469;-84
2022/11/25 03:19:12;;;;;;;99.20;43.50;;;;;;;2.26;91.05;100214.69;2189916;80;21365;-83
2022/11/25 03:22:15;;;;;;;99.77;43.05;;;;;;;2.34;91.25;100214.14;2193658;80;21036;-85
2022/11/25 03:25:17;;;;;;;90.67;43.00;;;;;;;2.37;91.16;100208.67;2151395;81;21065;-83
2022/11/25 03:28:20;;;;;;;102.35;44.58;;;;;;;2.38;91.08;100211.64;2157318;81;20995;-84
2022/11/25 03:31:21;;;;;;;101.72;44.50;;;;;;;2.35;91.08;100215.31;2185047;81;21523;-83
2022/11/25 03:34:22;;;;;;;101.90;47.13;;;;;;;2.41;91.22;100212.24;2182836;80;21057;-83
2022/11/25 03:37:23;;;;;;;105.20;45.65;;;;;;;2.47;91.28;100218.82;2180657;81;21071;-83
2022/11/25 03:40:24;;;;;;;108.30;46.30;;;;;;;2.49;91.19;100224.79;2181628;80;21604;-83
2022/11/25 03:43:26;;;;;;;110.45;46.77;;;;;;;2.44;91.03;100226.42;2181479;81;21039;-82
2022/11/25 03:46:27;;;;;;;103.22;48.05;;;;;;;2.43;91.09;100223.94;2177583;81;21002;-89
2022/11/25 03:49:29;;;;;;;105.20;45.80;;;;;;;2.44;91.10;100236.91;2174749;81;21068;-82
2022/11/25 03:52:30;;;;;;;113.97;47.35;;;;;;;2.44;91.17;100236.07;2194016;80;21459;-83
2022/11/25 03:55:31;;;;;;;106.92;46.35;;;;;;;2.51;91.40;100246.48;2177256;81;21075;-83
2022/11/25 03:58:33;;;;;;;103.85;42.48;;;;;;;2.61;91.59;100244.84;2180091;81;21084;-83
2022/11/25 04:01:34;;;;;;;104.15;43.73;;;;;;;2.69;91.66;100239.04;2183425;81;21057;-82
2022/11/25 04:04:35;;;;;;;96.60;39.95;;;;;;;2.79;91.71;100241.80;2203717;80;21017;-83
2022/11/25 04:07:36;;;;;;;94.83;39.03;;;;;;;2.87;91.74;100234.20;2204990;80;21011;-82
2022/11/25 04:10:39;;;;;;;99.32;38.20;;;;;;;2.86;91.29;100240.41;2181085;81;21075;-83
2022/11/25 04:13:40;;;;;;;87.10;37.35;;;;;;;2.78;91.03;100240.14;2177715;81;21085;-82
2022/11/25 04:16:42;;;;;;;91.65;39.08;;;;;;;2.74;91.09;100235.61;2184223;81;21001;-84
2022/11/25 04:19:43;;;;;;;84.42;37.60;;;;;;;2.65;91.00;100240.23;2184559;81;21486;-83
2022/11/25 04:22:45;;;;;;;99.37;38.38;;;;;;;2.68;91.35;100246.07;2179568;81;21057;-84
2022/11/25 04:25:49;;;;;;;98.40;36.58;;;;;;;2.73;91.50;100237.84;2154482;81;21017;-87
2022/11/25 04:28:52;;;;;;;84.32;36.60;;;;;;;2.64;91.10;100238.06;2138068;82;21574;-82
2022/11/25 04:31:54;;;;;;;90.83;35.23;;;;;;;2.58;91.13;100233.27;2162173;81;21047;-83
2022/11/25 04:34:55;;;;;;;89.30;35.83;;;;;;;2.49;91.17;100237.05;2164295;81;21552;-82
2022/11/25 04:37:56;;;;;;;90.70;37.78;;;;;;;2.44;91.34;100235.59;2159965;81;21489;-82
2022/11/25 04:40:58;;;;;;;89.97;35.90;;;;;;;2.42;91.46;100245.36;2166293;81;21042;-82
2022/11/25 04:44:00;;;;;;;87.85;36.93;;;;;;;2.44;91.60;100243.93;2166589;81;21144;-82
2022/11/25 04:47:02;;;;;;;87.88;37.65;;;;;;;2.54;91.94;100242.80;2133601;82;21091;-82
2022/11/25 04:50:05;;;;;;;78.83;37.13;;;;;;;2.58;91.87;100251.61;2169427;81;21424;-83
2022/11/25 04:53:07;;;;;;;88.45;38.88;;;;;;;2.62;91.85;100249.63;2125466;82;21032;-82
2022/11/25 04:56:16;;;;;;;96.00;39.90;;;;;;;2.72;91.99;100258.94;2173533;81;21124;-84
2022/11/25 05:02:37;;;;;;;96.82;40.05;;;;;;;2.75;91.70;100257.41;2140601;81;21027;-82
2022/11/25 05:05:40;;;;;;;96.25;39.18;;;;;;;2.74;91.57;100264.92;2153812;81;21055;-82
2022/11/25 05:08:42;;;;;;;97.12;40.92;;;;;;;2.76;91.75;100262.99;2147197;81;21601;-83
2022/11/25 05:11:44;;;;;;;92.45;40.70;;;;;;;2.81;91.89;100264.33;2159755;80;21454;-82
2022/11/25 05:14:46;;;;;;;93.40;38.10;;;;;;;2.77;91.66;100264.69;2171027;80;21009;-83
2022/11/25 05:17:47;;;;;;;100.40;40.03;;;;;;;2.73;91.49;100263.22;2158773;81;21064;-82
2022/11/25 05:20:50;;;;;;;97.25;40.58;;;;;;;2.67;91.43;100265.82;2174895;80;21036;-82
2022/11/25 05:23:55;;;;;;;97.62;40.45;;;;;;;2.69;91.71;100267.38;2168538;81;21398;-82
2022/11/25 05:26:57;;;;;;;100.10;42.13;;;;;;;2.68;91.67;100264.41;2166647;81;20972;-83
2022/11/25 05:29:58;;;;;;;99.72;41.00;;;;;;;2.71;91.82;100264.66;2168050;81;21084;-81
2022/11/25 05:32:59;;;;;;;99.85;43.10;;;;;;;2.77;92.00;100272.06;2167016;81;20950;-84
2022/11/25 05:36:03;;;;;;;113.83;43.05;;;;;;;2.83;92.01;100265.54;2166863;81;21194;-82
2022/11/25 05:39:12;;;;;;;108.75;43.60;;;;;;;2.86;92.03;100274.00;2168821;81;21029;-82
2022/11/25 05:42:15;;;;;;;106.35;42.40;;;;;;;2.86;91.89;100283.17;2161314;81;21145;-82
2022/11/25 05:45:16;;;;;;;105.52;42.53;;;;;;;2.90;91.96;100277.22;2228581;79;21464;-80
2022/11/25 05:48:18;;;;;;;92.20;38.53;;;;;;;2.85;91.65;100284.61;2192904;80;21041;-79
2022/11/25 05:51:19;;;;;;;94.28;38.63;;;;;;;2.77;91.57;100283.03;2189871;80;21056;-83
2022/11/25 05:54:20;;;;;;;88.60;38.58;;;;;;;2.76;91.70;100281.34;2188109;80;21032;-81
2022/11/25 05:57:21;;;;;;;84.50;38.45;;;;;;;2.76;91.78;100283.95;2195107;80;21051;-80
2022/11/25 06:00:25;;;;;;;89.05;37.10;;;;;;;2.73;91.76;100285.50;2163032;81;21065;-77
2022/11/25 06:03:28;;;;;;;96.97;38.83;;;;;;;2.70;91.80;100287.86;2191651;80;21067;-81
2022/11/25 06:06:30;;;;;;;90.47;39.55;;;;;;;2.73;91.97;100289.42;2197353;80;21037;-80
2022/11/25 06:09:31;;;;;;;97.65;38.78;;;;;;;2.73;91.94;100290.73;2183931;80;21454;-79
2022/11/25 06:12:33;;;;;;;89.47;38.85;;;;;;;2.69;91.73;100297.52;2189497;80;21001;-80
2022/11/25 06:15:36;;;;;;;90.10;39.80;;;;;;;2.67;91.88;100302.02;2193721;80;20969;-78
2022/11/25 06:18:39;;;;;;;90.55;37.48;;;;;;;2.73;92.04;100305.15;2190876;80;21114;-80
2022/11/25 06:21:41;;;;;;;111.28;38.95;;;;;;;2.72;91.98;100302.17;2193251;80;21052;-80
2022/11/25 06:24:42;;;;;;;102.22;39.20;;;;;;;2.72;92.04;100310.87;2169603;80;21042;-83
2022/11/25 06:27:43;;;;;;;98.15;38.85;;;;;;;2.78;92.22;100312.20;2161529;81;21038;-83
2022/11/25 06:30:46;;;;;;;98.72;40.03;;;;;;;2.83;92.32;100316.16;2197606;80;21049;-83
2022/11/25 06:33:51;;;;;;;96.67;38.05;;;;;;;2.87;92.27;100306.28;2190687;80;21043;-84
2022/11/25 06:36:52;;;;;;;89.25;38.40;;;;;;;2.75;91.84;100298.02;2186832;80;21024;-82
2022/11/25 06:39:54;;;;;;;90.97;37.15;;;;;;;2.67;91.89;100303.81;2190870;80;21073;-82
2022/11/25 06:42:55;;;;;;;89.80;37.53;;;;;;;2.59;91.90;100304.84;2191627;80;21488;-87
2022/11/25 06:46:06;;;;;;;97.78;41.25;;;;;;;2.53;92.00;100318.38;2193702;80;21318;-75
2022/11/25 06:49:07;;;;;;;101.40;40.10;;;;;;;2.54;92.36;100313.53;2189562;80;21014;-87
2022/11/25 06:52:08;;;;;;;108.42;42.48;;;;;;;3.42;96.77;100317.09;2141168;81;21599;-86
2022/11/25 06:55:09;;;;;;;87.20;39.92;;;;;;;3.59;95.36;100314.02;2189602;80;21032;-86
2022/11/25 06:58:10;;;;;;;93.45;39.70;;;;;;;3.42;93.43;100311.36;2190212;80;20990;-84
2022/11/25 07:01:19;;;;;;;95.28;39.05;;;;;;;3.34;92.83;100322.90;2189705;80;21006;-87
2022/11/25 07:04:20;;;;;;;89.97;37.20;;;;;;;3.31;92.71;100325.76;2190939;80;21079;-87
2022/11/25 07:07:21;;;;;;;85.28;37.45;;;;;;;3.34;92.75;100328.15;2158965;81;21587;-87
2022/11/25 07:10:22;;;;;;;90.17;38.80;;;;;;;3.32;92.62;100332.21;2211761;79;21050;-86
2022/11/25 07:13:23;;;;;;;85.05;37.20;;;;;;;3.29;92.51;100327.65;2196755;79;21456;-86
2022/11/25 07:16:25;;;;;;;99.37;44.70;;;;;;;3.23;92.35;100334.67;2196829;79;21066;-87
2022/11/25 07:19:26;;;;;;;98.60;42.58;;;;;;;3.19;92.45;100331.45;2201424;79;20962;-86
2022/11/25 07:22:27;;;;;;;92.40;39.63;;;;;;;3.17;92.42;100331.20;2176059;80;21002;-86
2022/11/25 07:25:28;;;;;;;99.35;41.30;;;;;;;3.12;92.41;100342.84;2177702;80;21108;-85
2022/11/25 07:28:30;;;;;;;92.35;40.15;;;;;;;3.12;92.54;100336.77;2230109;79;21130;-86
2022/11/25 07:31:43;;;;;;;92.50;41.53;;;;;;;3.16;92.73;100340.02;2174845;81;21094;-87
2022/11/25 07:34:44;;;;;;;93.10;41.68;;;;;;;3.25;92.85;100343.27;2164801;81;20988;-86
2022/11/25 07:37:45;;;;;;;105.52;42.65;;;;;;;3.28;92.75;100339.93;2227304;79;21334;-87
2022/11/25 07:40:46;;;;;;;96.50;42.38;;;;;;;3.31;92.79;100342.80;2222428;79;20928;-87
2022/11/25 07:43:52;;;;;;;95.72;41.55;;;;;;;3.33;92.73;100343.05;2231203;79;21001;-87
2022/11/25 07:46:55;;;;;;;97.88;42.08;;;;;;;3.30;92.53;100346.39;2169647;81;20994;-87
2022/11/25 07:49:56;;;;;;;97.20;44.27;;;;;;;3.30;92.59;100346.39;2183802;81;20989;-88
2022/11/25 07:52:58;;;;;;;112.15;44.05;;;;;;;3.37;92.92;100354.97;2184166;81;21061;-87
2022/11/25 07:56:02;;;;;;;109.37;45.12;;;;;;;3.43;92.90;100352.37;2179562;81;20995;-87
2022/11/25 07:59:05;;;;;;;111.37;46.23;;;;;;;3.51;92.94;100355.25;2181079;80;21478;-86
2022/11/25 08:02:09;;;;;;;105.92;44.50;;;;;;;3.59;93.05;100350.27;2167025;82;21051;-87
2022/11/25 08:05:11;;;;;;;119.40;45.85;;;;;;;3.67;92.94;100354.11;2226575;78;21500;-86
2022/11/25 08:08:12;;;;;;;124.65;49.77;;;;;;;3.73;92.95;100347.91;2229007;78;21590;-86
2022/11/25 08:11:18;;;;;;;124.87;47.10;;;;;;;3.71;92.72;100345.87;2220988;78;20993;-87
2022/11/25 08:14:20;;;;;;;117.67;48.38;;;;;;;3.67;92.67;100344.92;2189225;80;21042;-88
2022/11/25 08:17:21;;;;;;;133.43;53.08;;;;;;;3.67;92.77;100351.48;2193273;80;20941;-87
2022/11/25 08:20:22;;;;;;;128.53;51.37;;;;;;;3.73;92.99;100349.22;2192486;80;21013;-89
2022/11/25 08:23:23;;;;;;;133.63;51.88;;;;;;;3.79;93.13;100342.18;2189656;80;21048;-84
2022/11/25 08:26:29;;;;;;;125.00;48.10;;;;;;;3.87;93.17;100352.10;2169850;80;21061;-84
2022/11/25 08:29:30;;;;;;;119.62;49.45;;;;;;;3.94;93.18;100357.70;2150607;81;21024;-84
2022/11/25 08:32:37;;;;;;;121.80;49.33;;;;;;;3.98;93.09;100364.41;2126238;82;20973;-84
2022/11/25 08:35:38;;;;;;;133.90;52.43;;;;;;;3.97;93.02;100367.52;2151394;80;21007;-88
2022/11/25 08:38:41;;;;;;;131.63;51.80;;;;;;;4.07;93.38;100355.81;2151629;80;21568;-84
2022/11/25 08:41:42;;;;;;;134.82;53.38;;;;;;;4.18;93.39;100362.37;2156116;80;21581;-84
2022/11/25 08:44:43;;;;;;;120.95;52.85;;;;;;;4.28;93.45;100362.52;2148203;82;21041;-85
2022/11/25 08:47:44;;;;;;;130.82;53.05;;;;;;;4.36;93.35;100367.14;2154792;81;21493;-85
2022/11/25 08:50:52;;;;;;;131.97;55.55;;;;;;;4.42;93.30;100370.59;2152819;82;20989;-85
2022/11/25 08:53:55;;;;;;;125.20;51.28;;;;;;;4.49;93.35;100367.37;2152710;82;21568;-84
2022/11/25 08:56:56;;;;;;;128.35;52.83;;;;;;;4.58;93.29;100376.31;2154535;81;21535;-86
2022/11/25 08:59:57;;;;;;;127.50;54.27;;;;;;;4.62;93.15;100375.61;2151548;81;21081;-86
2022/11/25 09:02:58;;;;;;;136.47;55.28;;;;;;;4.72;93.30;100376.05;2151208;82;20996;-86
2022/11/25 09:06:00;;;;;;;134.65;54.85;;;;;;;4.80;93.16;100373.30;2128950;82;21512;-88
2022/11/25 09:09:01;;;;;;;135.90;55.55;;;;;;;4.88;93.18;100376.14;2136742;83;21453;-86
2022/11/25 09:12:03;;;;;;;124.20;55.90;;;;;;;4.92;93.04;100377.55;2126255;81;21048;-86
2022/11/25 09:15:06;;;;;;;131.18;56.00;;;;;;;5.00;93.07;100375.63;2154143;82;21482;-86
2022/11/25 09:18:10;;;;;;;155.20;60.05;;;;;;;4.98;92.84;100376.22;2150415;82;21012;-84
2022/11/25 09:21:14;;;;;;;134.85;56.77;;;;;;;5.04;93.05;100374.41;2126791;83;21022;-87
2022/11/25 09:24:15;;;;;;;130.25;55.85;;;;;;;5.09;93.04;100374.38;2157711;80;21017;-87
2022/11/25 09:27:16;;;;;;;135.78;59.38;;;;;;;5.13;93.05;100379.77;2206745;79;21069;-88
2022/11/25 09:30:17;;;;;;;158.87;64.25;;;;;;;5.21;93.12;100381.78;2194145;80;21454;-87
2022/11/25 09:33:20;;;;;;;161.95;66.33;;;;;;;5.25;93.08;100381.87;2188798;80;21023;-87
2022/11/25 09:36:22;;;;;;;140.28;59.18;;;;;;;5.27;93.02;100379.95;2189229;80;21001;-87
2022/11/25 09:39:28;;;;;;;136.60;56.88;;;;;;;5.30;93.04;100381.02;2192791;80;20985;-85
2022/11/25 09:47:10;;;;;;;147.37;57.73;;;;;;;5.43;93.07;100377.36;2193427;80;21031;-87
2022/11/25 09:50:29;;;;;;;147.40;55.38;;;;;;;5.50;93.05;100377.22;2193520;80;21026;-87
2022/11/25 09:53:35;;;;;;;142.65;57.90;;;;;;;5.59;93.08;100376.44;2192089;80;21036;-87
2022/11/25 09:56:57;;;;;;;141.30;53.38;;;;;;;5.67;93.08;100372.69;2192802;80;21078;-87
2022/11/25 10:00:12;;;;;;;151.00;59.73;;;;;;;5.65;92.74;100377.23;2189944;80;21014;-87
2022/11/25 10:03:37;;;;;;;152.12;57.25;;;;;;;5.67;92.88;100372.69;2189713;80;22453;-87
2022/11/25 10:06:49;;;;;;;121.72;51.48;;;;;;;5.70;92.85;100365.02;2185806;80;21037;-87
2022/11/25 10:09:52;;;;;;;139.15;53.60;;;;;;;5.76;93.05;100359.23;2192520;80;21021;-86
2022/11/25 10:12:59;;;;;;;151.60;59.80;;;;;;;5.83;93.06;100363.02;2196895;80;21024;-87
2022/11/25 10:16:04;;;;;;;129.95;53.42;;;;;;;5.87;93.11;100363.10;2196273;80;21012;-84
2022/11/25 10:19:25;;;;;;;127.90;50.00;;;;;;;5.87;92.89;100371.48;2186111;80;21017;-84
2022/11/25 10:22:33;;;;;;;115.88;48.33;;;;;;;5.85;93.03;100365.02;2162046;80;21555;-87
2022/11/25 10:25:39;;;;;;;109.17;45.65;;;;;;;5.90;93.17;100368.11;2190584;80;21084;-84
2022/11/25 10:28:55;;;;;;;100.92;44.98;;;;;;;5.98;93.15;100368.81;2191392;80;21027;-87
2022/11/25 10:32:10;;;;;;;95.57;40.63;;;;;;;6.03;93.20;100372.72;2160993;82;21060;-89
2022/11/25 10:35:22;;;;;;;94.52;39.40;;;;;;;6.09;93.35;100367.41;2162822;81;20992;-89
2022/11/25 10:38:45;;;;;;;89.70;39.53;;;;;;;6.20;93.46;100369.95;2171422;81;21064;-89
2022/11/25 10:41:58;;;;;;;90.38;37.33;;;;;;;6.39;93.70;100369.66;2165846;81;21038;-88
2022/11/25 10:44:59;;;;;;;67.92;32.38;;;;;;;6.59;93.64;100363.50;2177871;81;21026;-89
2022/11/25 10:48:24;;;;;;;67.75;30.72;;;;;;;6.75;93.32;100374.83;2192985;80;21476;-88
2022/11/25 10:51:45;;;;;;;71.20;30.32;;;;;;;6.89;93.20;100378.88;2191276;80;21007;-89
2022/11/25 10:55:15;;;;;;;65.70;30.02;;;;;;;7.00;92.93;100373.97;2191508;80;21048;-90
2022/11/25 10:58:35;;;;;;;70.45;31.75;;;;;;;7.07;92.62;100365.38;2191713;79;21573;-89
2022/11/25 11:01:36;;;;;;;74.67;33.45;;;;;;;7.12;92.39;100375.50;2194508;79;20954;-89
2022/11/25 11:05:02;;;;;;;66.82;31.75;;;;;;;7.19;92.35;100372.67;2195477;80;21020;-89
2022/11/25 11:08:28;;;;;;;71.77;33.30;;;;;;;7.24;92.03;100373.58;2191044;79;21024;-89
2022/11/25 11:11:31;;;;;;;68.10;32.58;;;;;;;7.21;91.86;100376.01;2195475;79;21547;-89
2022/11/25 11:14:33;;;;;;;77.87;35.63;;;;;;;7.16;91.42;100383.01;2196675;79;21009;-89
2022/11/25 11:17:35;;;;;;;79.92;33.80;;;;;;;7.08;91.41;100394.73;2198430;80;21056;-87
2022/11/25 11:20:36;;;;;;;73.80;34.73;;;;;;;7.03;91.35;100394.31;2190073;80;21509;-89
2022/11/25 11:23:51;;;;;;;70.72;31.10;;;;;;;7.01;91.43;100388.36;2192736;80;21541;-88
2022/11/25 11:27:10;;;;;;;55.88;28.92;;;;;;;6.95;91.31;100388.88;2189745;80;20995;-90
2022/11/25 11:30:19;;;;;;;61.53;30.70;;;;;;;6.91;91.28;100390.14;2191643;80;21544;-88
2022/11/25 11:33:38;;;;;;;54.55;28.02;;;;;;;6.85;91.17;100394.64;2193757;80;21582;-89
2022/11/25 11:37:11;;;;;;;55.70;28.40;;;;;;;6.80;91.25;100392.41;2190020;80;21089;-90
2022/11/25 11:40:50;;;;;;;55.23;28.73;;;;;;;6.83;91.39;100383.39;2146171;80;21034;-89
2022/11/25 11:44:29;;;;;;;55.88;28.83;;;;;;;6.87;91.47;100386.95;2194799;80;21052;-89
2022/11/25 11:47:57;;;;;;;53.25;27.35;;;;;;;6.83;91.24;100393.45;2181587;80;21021;-90
2022/11/25 11:51:31;;;;;;;62.27;29.00;;;;;;;6.88;91.52;100392.56;2189203;79;21065;-89
2022/11/25 11:54:45;;;;;;;56.75;28.60;;;;;;;6.91;91.42;100383.54;2196210;80;21017;-90
2022/11/25 11:58:06;;;;;;;56.80;28.20;;;;;;;6.94;91.43;100388.05;2195807;80;21046;-89
2022/11/25 12:01:32;;;;;;;55.17;29.20;;;;;;;7.01;91.43;100387.04;2187309;80;21001;-89
2022/11/25 12:04:39;;;;;;;52.65;27.37;;;;;;;7.08;91.45;100388.14;2196923;80;21093;-88
2022/11/25 12:08:04;;;;;;;74.90;29.87;;;;;;;7.15;91.29;100376.54;2194938;80;21354;-89
2022/11/25 12:11:13;;;;;;;66.07;31.40;;;;;;;7.22;91.16;100381.62;2192401;80;21040;-90
2022/11/25 12:14:32;;;;;;;50.88;26.55;;;;;;;7.26;91.01;100371.61;2196601;80;22247;-90
2022/11/25 12:17:44;;;;;;;49.15;25.62;;;;;;;7.30;90.75;100376.98;2191238;80;21013;-90
2022/11/25 12:21:06;;;;;;;52.48;27.20;;;;;;;7.32;90.58;100376.33;2194150;80;21025;-90
2022/11/25 12:24:22;;;;;;;;;;;;;;;7.36;90.61;100372.45;2196637;80;21030;-86
2022/11/25 12:27:40;;;;;;;50.45;25.25;;;;;;;7.43;90.60;100358.20;2189514;80;20130;-89
2022/11/25 12:30:49;;;;;;;51.77;27.77;;;;;;;7.49;90.39;100361.12;2185212;80;21064;-90
2022/11/25 12:34:14;;;;;;;53.20;26.43;;;;;;;7.53;90.16;100365.63;2165679;80;21031;-90
2022/11/25 12:37:21;;;;;;;50.17;24.52;;;;;;;7.56;90.14;100371.45;2178608;81;21016;-90
2022/11/25 12:40:37;;;;;;;51.73;24.15;;;;;;;7.58;90.00;100363.41;2130208;82;21554;-90
2022/11/25 12:43:46;;;;;;;45.85;24.18;;;;;;;7.57;89.81;100366.55;2176933;81;21086;-90
2022/11/25 12:46:50;;;;;;;43.55;23.05;;;;;;;7.58;89.69;100364.23;2176382;81;21013;-88
2022/11/25 12:49:54;;;;;;;42.83;22.58;;;;;;;7.58;89.57;100362.91;2165096;80;21039;-89
2022/11/25 12:53:19;;;;;;;43.33;23.27;;;;;;;7.57;89.43;100359.94;2182995;81;21056;-89
2022/11/25 12:56:26;;;;;;;49.15;23.80;;;;;;;7.57;89.43;100363.91;2212348;80;21056;-90
2022/11/25 13:00:04;;;;;;;39.98;23.60;;;;;;;7.62;89.56;100365.61;2192755;80;21014;-89
2022/11/25 13:03:39;;;;;;;43.78;23.18;;;;;;;7.66;89.51;100369.28;2187989;79;21605;-89
2022/11/25 13:07:09;;;;;;;45.20;23.90;;;;;;;7.73;89.55;100373.03;2188828;80;21044;-90
2022/11/25 13:10:40;;;;;;;46.02;22.70;;;;;;;7.74;89.23;100376.01;2197229;80;21083;-90
2022/11/25 13:13:56;;;;;;;46.75;23.95;;;;;;;7.76;89.19;100381.99;2187766;80;21029;-86
2022/11/25 13:16:58;;;;;;;39.25;20.90;;;;;;;7.78;89.05;100377.41;2163864;81;22523;-89
2022/11/25 13:20:28;;;;;;;34.67;19.27;;;;;;;7.76;88.83;100378.03;2177428;81;21545;-88
2022/11/25 13:23:39;;;;;;;40.55;19.55;;;;;;;7.79;88.76;100383.03;2176630;81;21592;-89
2022/11/25 13:26:48;;;;;;;42.05;20.02;;;;;;;7.77;88.64;100383.19;2165198;80;21097;-89
2022/11/25 13:29:54;;;;;;;39.05;22.00;;;;;;;7.75;88.68;100379.02;2184231;80;21072;-89
2022/11/25 13:32:55;;;;;;;45.28;20.95;;;;;;;7.75;88.67;100389.58;2187516;80;22191;-89
2022/11/25 13:35:56;;;;;;;39.73;19.90;;;;;;;7.77;88.63;100382.33;2187100;80;21040;-87
2022/11/25 13:39:01;;;;;;;49.58;20.32;;;;;;;7.79;88.68;100389.63;2187685;80;21307;-88
2022/11/25 13:42:26;;;;;;;42.10;20.82;;;;;;;7.85;88.72;100391.23;2187210;80;21290;-89
2022/11/25 13:45:41;;;;;;;39.38;19.77;;;;;;;7.89;88.58;100386.98;2182946;80;21646;-88
2022/11/25 13:48:44;;;;;;;46.50;22.52;;;;;;;7.91;88.40;100392.94;2186271;80;21025;-88
2022/11/25 13:51:52;;;;;;;47.03;23.25;;;;;;;7.92;88.33;100390.17;2173856;80;21010;-88
2022/11/25 13:54:55;;;;;;;44.48;22.37;;;;;;;7.89;88.08;100390.95;2186319;80;21017;-88
2022/11/25 13:58:14;;;;;;;46.83;23.07;;;;;;;7.88;88.10;100392.73;2160507;80;21005;-89
2022/11/25 14:01:26;;;;;;;49.15;22.85;;;;;;;7.85;87.96;100390.38;2186249;80;21608;-85
2022/11/25 14:05:19;;;;;;;40.40;20.25;;;;;;;7.80;87.85;100396.11;2182439;80;21092;-89
2022/11/25 14:08:42;;;;;;;35.23;18.00;;;;;;;7.79;87.79;100393.59;2170846;80;21026;-89
2022/11/25 14:11:49;;;;;;;38.63;19.95;;;;;;;7.79;87.82;100392.27;2188247;80;21061;-89
2022/11/25 14:15:11;;;;;;;40.50;19.92;;;;;;;7.76;87.62;100401.80;2185567;80;21035;-78
2022/11/25 14:18:39;;;;;;;32.90;17.70;;;;;;;7.70;87.49;100405.84;2186715;80;21088;-75
2022/11/25 14:22:24;;;;;;;31.00;16.75;;;;;;;7.64;87.33;100405.92;2187234;80;21003;-79
2022/11/25 14:25:31;;;;;;;33.45;16.00;;;;;;;7.55;87.24;100406.77;2188559;80;21074;-77